Time;durP1;ratioP1;P1;durP2;ratioP2;P2;SDS_P1;SDS_P2;PMS_P1;PMS_P2;Temp;Humidity;BMP_temperature;BMP_pressure;BME280_temperature;BME280_humidity;BME280_pressure;Samples;Min_cycle;Max_cycle;Signal;HPM_P1;HPM_P2
2023/08/22 00:00:13;;;;;;;19.67;17.77;;;27.00;99.90;;;;;;4818666;29;20258;-79
2023/08/22 00:02:39;;;;;;;20.47;18.47;;;26.90;99.90;;;;;;4832618;29;20212;-83
2023/08/22 00:05:06;;;;;;;20.20;18.00;;;26.80;99.90;;;;;;4819112;29;20453;-84
2023/08/22 00:07:31;;;;;;;20.63;18.67;;;26.80;99.90;;;;;;4832739;29;20439;-84
2023/08/22 00:09:57;;;;;;;20.50;17.30;;;26.70;99.90;;;;;;4818659;29;20445;-78
2023/08/22 00:12:23;;;;;;;20.87;18.50;;;26.70;99.90;;;;;;4818825;29;20555;-79
2023/08/22 00:14:50;;;;;;;19.27;17.37;;;26.60;99.90;;;;;;4817280;29;20206;-84
2023/08/22 00:17:19;;;;;;;18.20;16.60;;;26.60;99.90;;;;;;4818351;29;20597;-84
2023/08/22 00:19:45;;;;;;;20.33;18.30;;;26.60;99.90;;;;;;4817168;29;21031;-84
2023/08/22 00:22:11;;;;;;;19.20;17.37;;;26.60;99.90;;;;;;4832158;29;20422;-79
2023/08/22 00:24:38;;;;;;;20.33;18.43;;;26.60;99.90;;;;;;4832526;29;20202;-79
2023/08/22 00:27:04;;;;;;;19.23;17.27;;;26.60;99.90;;;;;;4832153;29;20822;-79
2023/08/22 00:29:29;;;;;;;19.90;17.87;;;26.60;99.90;;;;;;4832286;29;20468;-79
2023/08/22 00:31:57;;;;;;;20.73;18.63;;;26.60;99.90;;;;;;4818328;29;20418;-83
2023/08/22 00:34:22;;;;;;;20.60;18.60;;;26.50;99.90;;;;;;4818611;29;20276;-80
2023/08/22 00:36:48;;;;;;;20.20;18.30;;;26.50;99.90;;;;;;4818028;29;20971;-79
2023/08/22 00:39:14;;;;;;;20.80;18.60;;;26.50;99.90;;;;;;4818200;29;20225;-84
2023/08/22 00:41:40;;;;;;;19.40;17.50;;;26.50;99.90;;;;;;4816883;29;20265;-79
2023/08/22 00:44:05;;;;;;;21.87;19.57;;;26.40;99.90;;;;;;4817988;29;20186;-84
2023/08/22 00:46:31;;;;;;;20.03;18.03;;;26.40;99.90;;;;;;4832192;29;20210;-84
2023/08/22 00:48:58;;;;;;;19.60;17.70;;;26.40;99.90;;;;;;4817798;29;20181;-84
2023/08/22 00:51:24;;;;;;;21.30;19.10;;;26.40;99.90;;;;;;4816797;29;20206;-80
2023/08/22 00:53:50;;;;;;;19.83;17.67;;;26.30;99.90;;;;;;4830839;29;20445;-84
2023/08/22 00:56:16;;;;;;;20.70;17.53;;;26.30;99.90;;;;;;4832080;29;20845;-79
2023/08/22 00:58:41;;;;;;;19.93;17.83;;;26.30;99.90;;;;;;4831863;29;20228;-79
2023/08/22 01:01:08;;;;;;;23.73;19.27;;;26.30;99.90;;;;;;4815863;29;20446;-84
2023/08/22 01:03:34;;;;;;;20.20;18.13;;;26.30;99.90;;;;;;4817608;29;20363;-84
2023/08/22 01:06:12;;;;;;;21.60;19.13;;;26.30;99.90;;;;;;4818008;29;20429;-84
2023/08/22 01:08:44;;;;;;;19.57;17.77;;;26.20;99.90;;;;;;4816212;29;20433;-84
2023/08/22 01:11:29;;;;;;;21.57;19.50;;;26.20;99.90;;;;;;4816724;29;20451;-79
2023/08/22 01:13:57;;;;;;;20.13;18.23;;;26.20;99.90;;;;;;4816080;29;20445;-84
2023/08/22 01:16:24;;;;;;;20.83;18.90;;;26.20;99.90;;;;;;4831618;29;20492;-79
2023/08/22 01:18:50;;;;;;;20.20;18.10;;;26.10;99.90;;;;;;4817587;29;20557;-85
2023/08/22 01:21:25;;;;;;;21.23;17.60;;;26.10;99.90;;;;;;4817528;29;20449;-83
2023/08/22 01:23:51;;;;;;;22.67;18.43;;;26.00;99.90;;;;;;4817667;29;20788;-79
2023/08/22 01:26:16;;;;;;;21.63;19.30;;;26.00;99.90;;;;;;4817638;29;20445;-84
2023/08/22 01:28:46;;;;;;;21.40;18.20;;;26.00;99.90;;;;;;4817536;29;20190;-80
2023/08/22 01:31:18;;;;;;;21.63;19.57;;;26.00;99.90;;;;;;4817922;29;20202;-79
2023/08/22 01:33:59;;;;;;;19.90;17.90;;;26.00;99.90;;;;;;4817573;29;21069;-79
2023/08/22 01:36:25;;;;;;;20.30;18.20;;;26.00;99.90;;;;;;4817464;29;20449;-84
2023/08/22 01:38:53;;;;;;;20.33;18.30;;;25.90;99.90;;;;;;4815731;29;20493;-83
2023/08/22 01:41:20;;;;;;;27.30;19.37;;;25.90;99.90;;;;;;4817020;29;20448;-79
2023/08/22 01:43:46;;;;;;;21.83;18.20;;;25.90;99.90;;;;;;4816991;29;20434;-83
2023/08/22 01:46:12;;;;;;;22.93;19.30;;;25.90;99.90;;;;;;4831405;29;20472;-84
2023/08/22 01:48:37;;;;;;;21.17;18.93;;;25.80;99.90;;;;;;4817198;29;20241;-84
2023/08/22 01:51:03;;;;;;;20.30;18.30;;;25.80;99.90;;;;;;4815795;29;20749;-84
2023/08/22 01:53:29;;;;;;;20.40;18.30;;;25.70;99.90;;;;;;4817143;29;20719;-79
2023/08/22 01:56:01;;;;;;;20.83;18.73;;;25.70;99.90;;;;;;4830762;29;20580;-79
2023/08/22 01:58:27;;;;;;;21.90;19.57;;;25.70;99.90;;;;;;4831109;29;20566;-78
2023/08/22 02:00:53;;;;;;;19.90;18.00;;;25.70;99.90;;;;;;4830754;29;20452;-79
2023/08/22 02:03:20;;;;;;;21.90;18.20;;;25.60;99.90;;;;;;4816648;29;20193;-84
2023/08/22 02:05:46;;;;;;;22.33;19.07;;;25.60;99.90;;;;;;4814387;29;20474;-83
2023/08/22 02:08:12;;;;;;;21.80;18.80;;;25.60;99.90;;;;;;4815164;29;20421;-84
2023/08/22 02:10:38;;;;;;;22.73;18.33;;;25.50;99.90;;;;;;4815773;29;20816;-78
2023/08/22 02:13:03;;;;;;;19.83;17.93;;;25.50;99.90;;;;;;4830617;29;20598;-83
2023/08/22 02:15:31;;;;;;;21.27;19.07;;;25.50;99.90;;;;;;4815794;29;20586;-78
2023/08/22 02:17:56;;;;;;;22.40;20.07;;;25.40;99.90;;;;;;4816358;29;20210;-84
2023/08/22 02:20:23;;;;;;;20.77;18.60;;;25.40;99.90;;;;;;4815213;29;20462;-79
2023/08/22 02:22:48;;;;;;;20.97;18.80;;;25.40;99.90;;;;;;4816105;29;20399;-79
2023/08/22 02:25:15;;;;;;;21.50;18.57;;;25.40;99.90;;;;;;4816789;29;20556;-85
2023/08/22 02:27:41;;;;;;;21.40;18.83;;;25.40;99.90;;;;;;4816434;29;20339;-79
2023/08/22 02:30:07;;;;;;;21.23;18.27;;;25.30;99.90;;;;;;4830557;29;20563;-80
2023/08/22 02:32:33;;;;;;;22.60;20.37;;;25.30;99.90;;;;;;4815147;29;20281;-84
2023/08/22 02:34:59;;;;;;;20.30;18.10;;;25.30;99.90;;;;;;4830332;29;20502;-79
2023/08/22 02:37:24;;;;;;;22.03;19.90;;;25.30;99.90;;;;;;4814765;29;20333;-84
2023/08/22 02:39:50;;;;;;;22.53;20.23;;;25.30;99.90;;;;;;4814957;29;20237;-79
2023/08/22 02:42:15;;;;;;;21.23;19.23;;;25.20;99.90;;;;;;4816452;29;20661;-82
2023/08/22 02:44:41;;;;;;;20.27;18.30;;;25.20;99.90;;;;;;4816872;29;20209;-84
2023/08/22 02:47:07;;;;;;;21.77;19.57;;;25.20;99.90;;;;;;4830163;29;20323;-80
2023/08/22 02:49:33;;;;;;;22.63;20.53;;;25.20;99.90;;;;;;4815084;29;20192;-79
2023/08/22 02:51:58;;;;;;;21.57;18.60;;;25.20;99.90;;;;;;4816205;29;20186;-81
2023/08/22 02:54:24;;;;;;;21.33;19.13;;;25.10;99.90;;;;;;4816538;29;20201;-79
2023/08/22 02:56:49;;;;;;;21.87;18.90;;;25.10;99.90;;;;;;4829689;29;20249;-81
2023/08/22 02:59:16;;;;;;;22.23;20.03;;;25.10;99.90;;;;;;4814980;29;20633;-84
2023/08/22 03:01:42;;;;;;;23.23;19.07;;;25.10;99.90;;;;;;4816294;29;20504;-84
2023/08/22 03:04:07;;;;;;;23.40;20.97;;;25.10;99.90;;;;;;4816296;29;20452;-84
2023/08/22 03:06:33;;;;;;;23.20;20.70;;;25.20;99.90;;;;;;4813969;29;20274;-79
2023/08/22 03:08:59;;;;;;;21.20;19.07;;;25.20;99.90;;;;;;4815478;29;20367;-84
2023/08/22 03:11:24;;;;;;;21.80;19.60;;;25.30;99.90;;;;;;4815102;29;20752;-84
2023/08/22 03:13:50;;;;;;;20.57;18.10;;;25.30;99.90;;;;;;4815784;29;20189;-84
2023/08/22 03:16:16;;;;;;;21.77;19.33;;;25.30;99.90;;;;;;4830296;29;20466;-83
2023/08/22 03:18:42;;;;;;;21.93;19.93;;;25.40;99.90;;;;;;4833088;29;20634;-79
2023/08/22 03:21:08;;;;;;;22.17;19.97;;;25.40;99.90;;;;;;4818471;29;20663;-84
2023/08/22 03:23:33;;;;;;;21.63;19.40;;;25.40;99.90;;;;;;4833361;29;20440;-85
2023/08/22 03:26:02;;;;;;;28.10;20.60;;;25.40;99.90;;;;;;4819870;29;20275;-79
2023/08/22 03:28:33;;;;;;;21.70;19.63;;;25.40;99.90;;;;;;4819349;29;20272;-84
2023/08/22 03:31:03;;;;;;;21.90;19.60;;;25.50;99.90;;;;;;4833516;29;20543;-79
2023/08/22 03:33:30;;;;;;;21.23;19.23;;;25.40;99.90;;;;;;4833240;29;20467;-79
2023/08/22 03:35:57;;;;;;;22.30;19.90;;;25.40;99.90;;;;;;4832966;29;20749;-84
2023/08/22 03:38:23;;;;;;;23.30;20.50;;;25.40;99.90;;;;;;4831740;29;20512;-79
2023/08/22 03:40:49;;;;;;;22.07;19.90;;;25.30;99.90;;;;;;4816618;29;20485;-84
2023/08/22 03:43:18;;;;;;;21.80;19.43;;;25.30;99.90;;;;;;4817726;29;20765;-84
2023/08/22 03:45:45;;;;;;;23.10;20.80;;;25.30;99.90;;;;;;4833254;29;20449;-79
2023/08/22 03:48:10;;;;;;;24.20;21.57;;;25.30;99.90;;;;;;4818818;29;20946;-79
2023/08/22 03:50:39;;;;;;;22.47;20.17;;;25.20;99.90;;;;;;4818680;29;20459;-84
2023/08/22 03:53:06;;;;;;;21.47;19.10;;;25.20;99.90;;;;;;4818291;29;20190;-85
2023/08/22 03:55:31;;;;;;;23.27;20.73;;;25.20;99.90;;;;;;4830758;29;20491;-79
2023/08/22 03:57:58;;;;;;;22.80;20.40;;;25.10;99.90;;;;;;4830185;29;20765;-85
2023/08/22 04:00:25;;;;;;;22.50;20.27;;;25.10;99.90;;;;;;4831289;29;20208;-84
2023/08/22 04:02:58;;;;;;;25.17;20.53;;;25.10;99.90;;;;;;4830921;29;20853;-80
2023/08/22 04:05:25;;;;;;;21.63;19.33;;;25.10;99.90;;;;;;4816617;29;20468;-84
2023/08/22 04:07:51;;;;;;;23.53;21.10;;;25.10;99.90;;;;;;4812889;29;20498;-79
2023/08/22 04:10:18;;;;;;;23.23;20.23;;;25.10;99.90;;;;;;4813333;29;20968;-84
2023/08/22 04:12:44;;;;;;;23.50;21.10;;;25.10;99.90;;;;;;4830572;29;20433;-80
2023/08/22 04:15:11;;;;;;;23.37;20.90;;;25.10;99.90;;;;;;4817011;29;20461;-79
2023/08/22 04:17:38;;;;;;;27.33;21.80;;;25.10;99.90;;;;;;4827520;29;20561;-85
2023/08/22 04:20:06;;;;;;;24.47;20.23;;;25.00;99.90;;;;;;4816658;29;20931;-85
2023/08/22 04:22:31;;;;;;;22.40;20.20;;;25.00;99.90;;;;;;4816381;29;20430;-84
2023/08/22 04:24:57;;;;;;;23.43;21.03;;;25.10;99.90;;;;;;4816528;29;20769;-84
2023/08/22 04:27:23;;;;;;;23.23;20.33;;;25.10;99.90;;;;;;4817863;29;20552;-79
2023/08/22 04:29:48;;;;;;;22.03;19.83;;;25.20;99.90;;;;;;4816779;29;20217;-78
2023/08/22 04:32:14;;;;;;;22.60;20.20;;;25.20;99.90;;;;;;4831625;29;20195;-79
2023/08/22 04:34:40;;;;;;;22.00;19.77;;;25.20;99.90;;;;;;4832068;29;20205;-79
2023/08/22 04:37:05;;;;;;;23.33;21.00;;;25.30;99.90;;;;;;4831576;29;20388;-81
2023/08/22 04:39:31;;;;;;;21.90;19.53;;;25.30;99.90;;;;;;4816577;29;20233;-79
2023/08/22 04:41:57;;;;;;;24.10;21.70;;;25.30;99.90;;;;;;4817432;29;20230;-82
2023/08/22 04:44:22;;;;;;;24.43;21.83;;;25.40;99.90;;;;;;4825519;29;20185;-79
2023/08/22 04:46:48;;;;;;;22.47;19.47;;;25.40;99.90;;;;;;4842868;29;20280;-79
2023/08/22 04:49:13;;;;;;;23.80;21.20;;;25.40;99.90;;;;;;4817947;29;20205;-85
2023/08/22 04:51:39;;;;;;;23.33;20.17;;;25.40;99.90;;;;;;4818085;29;20806;-84
2023/08/22 04:54:05;;;;;;;22.40;20.10;;;25.50;99.90;;;;;;4816284;29;20889;-78
2023/08/22 04:56:30;;;;;;;22.97;20.67;;;25.50;99.90;;;;;;4816355;29;20309;-84
2023/08/22 04:58:56;;;;;;;25.30;22.60;;;25.50;99.90;;;;;;4815682;29;20228;-80
2023/08/22 05:01:22;;;;;;;23.83;20.80;;;25.60;99.90;;;;;;4830755;29;20479;-79
2023/08/22 05:03:47;;;;;;;21.57;19.30;;;25.60;99.90;;;;;;4815152;29;20224;-84
2023/08/22 05:06:13;;;;;;;24.93;20.90;;;25.60;99.90;;;;;;4817458;29;20209;-84
2023/08/22 05:08:39;;;;;;;659.33;387.07;;;25.60;99.90;;;;;;4817196;29;20185;-82
2023/08/22 05:11:05;;;;;;;30.43;24.30;;;25.60;99.90;;;;;;4817789;29;20232;-79
2023/08/22 05:13:30;;;;;;;24.03;21.50;;;25.70;99.90;;;;;;4816349;29;20441;-84
2023/08/22 05:15:56;;;;;;;21.60;19.47;;;25.80;99.90;;;;;;4817101;29;20235;-84
2023/08/22 05:18:22;;;;;;;24.87;22.40;;;25.80;99.90;;;;;;4830948;29;20217;-84
2023/08/22 05:20:53;;;;;;;24.10;21.33;;;25.80;99.90;;;;;;4830194;29;20297;-80
2023/08/22 05:23:19;;;;;;;24.37;21.67;;;25.80;99.90;;;;;;4817618;29;20176;-79
2023/08/22 05:25:45;;;;;;;25.20;20.67;;;25.90;99.90;;;;;;4815972;29;20446;-78
2023/08/22 05:28:11;;;;;;;24.07;21.80;;;25.90;99.90;;;;;;4817634;29;20185;-84
2023/08/22 05:30:38;;;;;;;23.00;20.80;;;26.00;99.90;;;;;;4816650;29;20272;-85
2023/08/22 05:33:04;;;;;;;21.73;19.43;;;26.00;99.90;;;;;;4813922;29;20274;-79
2023/08/22 05:35:29;;;;;;;22.90;20.37;;;26.00;99.90;;;;;;4815112;29;20826;-84
2023/08/22 05:37:55;;;;;;;22.77;20.40;;;26.00;99.90;;;;;;4815647;29;20504;-79
2023/08/22 05:40:21;;;;;;;25.20;20.97;;;26.00;99.90;;;;;;4811724;29;20347;-79
2023/08/22 05:42:47;;;;;;;23.73;21.43;;;26.00;99.90;;;;;;4808066;29;20384;-79
2023/08/22 05:45:12;;;;;;;22.80;20.00;;;26.10;99.90;;;;;;4807049;29;20213;-84
2023/08/22 05:47:38;;;;;;;23.97;21.57;;;26.20;99.90;;;;;;4814576;29;20732;-78
2023/08/22 05:50:04;;;;;;;23.00;20.60;;;26.20;99.90;;;;;;4813540;29;20214;-85
2023/08/22 05:52:30;;;;;;;22.53;20.27;;;26.30;99.90;;;;;;4812445;29;20197;-84
2023/08/22 05:54:56;;;;;;;22.60;20.43;;;26.40;99.90;;;;;;4814632;29;20480;-79
2023/08/22 05:57:22;;;;;;;22.40;20.20;;;26.50;99.90;;;;;;4828834;29;20507;-85
2023/08/22 05:59:51;;;;;;;43.73;34.70;;;26.60;99.90;;;;;;4832698;29;20488;-80
2023/08/22 06:02:17;;;;;;;71.37;56.10;;;26.70;99.90;;;;;;4831569;29;20979;-83
2023/08/22 06:04:46;;;;;;;24.87;22.33;;;26.80;99.90;;;;;;4812778;29;20705;-79
2023/08/22 06:07:12;;;;;;;22.50;20.17;;;26.90;99.90;;;;;;4813537;29;20563;-79
2023/08/22 06:09:37;;;;;;;20.90;18.70;;;26.90;99.90;;;;;;4814496;29;20475;-79
2023/08/22 06:12:03;;;;;;;21.40;19.20;;;27.00;99.90;;;;;;4813885;29;20625;-81
2023/08/22 06:14:29;;;;;;;21.40;19.43;;;27.00;99.90;;;;;;4811114;29;20185;-79
2023/08/22 06:16:55;;;;;;;19.80;17.80;;;27.00;99.90;;;;;;4810811;29;21024;-78
2023/08/22 06:19:20;;;;;;;20.83;18.73;;;27.10;99.90;;;;;;4809911;29;20611;-84
2023/08/22 06:21:46;;;;;;;22.93;18.10;;;27.20;99.90;;;;;;4819206;29;20479;-83
2023/08/22 06:24:12;;;;;;;19.50;17.60;;;27.20;99.90;;;;;;4829554;29;20715;-84
2023/08/22 06:26:38;;;;;;;20.70;18.77;;;27.30;99.90;;;;;;4828677;29;20218;-80
2023/08/22 06:29:03;;;;;;;19.87;17.97;;;27.40;99.90;;;;;;4827467;29;20194;-85
2023/08/22 06:31:31;;;;;;;182.63;162.50;;;27.40;99.90;;;;;;4813467;29;20252;-81
2023/08/22 06:33:56;;;;;;;25.07;22.43;;;27.50;99.90;;;;;;4826471;29;20259;-84
2023/08/22 06:36:22;;;;;;;23.40;21.17;;;27.60;99.90;;;;;;4814440;29;20521;-85
2023/08/22 06:38:48;;;;;;;20.30;18.40;;;27.70;99.90;;;;;;4814622;29;20810;-79
2023/08/22 06:41:16;;;;;;;19.37;17.47;;;27.80;99.90;;;;;;4816024;29;20704;-85
2023/08/22 06:43:42;;;;;;;21.13;19.03;;;27.90;99.90;;;;;;4815439;29;20210;-85
2023/08/22 06:46:07;;;;;;;20.90;19.00;;;27.90;99.90;;;;;;4815798;29;20442;-85
2023/08/22 06:48:33;;;;;;;19.63;17.63;;;27.90;99.90;;;;;;4815734;29;20586;-79
2023/08/22 06:50:59;;;;;;;20.40;18.33;;;28.00;99.90;;;;;;4812680;29;20250;-80
2023/08/22 06:53:24;;;;;;;20.10;18.07;;;28.10;99.90;;;;;;4812923;29;20187;-85
2023/08/22 06:55:50;;;;;;;20.30;18.40;;;28.30;99.90;;;;;;4814173;29;20244;-79
2023/08/22 06:58:15;;;;;;;18.80;17.00;;;28.30;99.90;;;;;;4813989;29;20277;-84
2023/08/22 07:00:41;;;;;;;19.90;18.10;;;28.30;99.90;;;;;;4814604;29;20564;-80
2023/08/22 07:03:07;;;;;;;19.77;17.87;;;28.40;99.90;;;;;;4815919;29;20184;-84
2023/08/22 07:05:37;;;;;;;19.23;17.53;;;28.40;99.90;;;;;;4820888;29;20250;-85
2023/08/22 07:08:03;;;;;;;19.23;17.63;;;28.40;99.90;;;;;;4818210;29;20191;-80
2023/08/22 07:10:28;;;;;;;20.33;17.70;;;28.50;99.90;;;;;;4817400;29;20455;-80
2023/08/22 07:12:54;;;;;;;18.67;16.87;;;28.60;99.90;;;;;;4815281;29;20185;-85
2023/08/22 07:15:20;;;;;;;19.40;17.50;;;28.70;99.90;;;;;;4815896;29;20206;-84
2023/08/22 07:17:46;;;;;;;18.40;16.70;;;28.80;99.90;;;;;;4801130;29;20219;-80
2023/08/22 07:20:13;;;;;;;18.67;16.97;;;28.90;99.90;;;;;;4807833;29;20491;-85
2023/08/22 07:22:39;;;;;;;18.33;16.30;;;28.80;99.90;;;;;;4814131;29;20447;-80
2023/08/22 07:25:05;;;;;;;19.67;17.77;;;28.90;99.90;;;;;;4826074;29;20545;-85
2023/08/22 07:27:30;;;;;;;18.30;16.40;;;29.00;99.90;;;;;;4816765;29;20193;-84
2023/08/22 07:29:56;;;;;;;18.73;17.10;;;29.10;99.90;;;;;;4816941;29;20752;-85
2023/08/22 07:32:22;;;;;;;18.00;16.10;;;29.00;99.90;;;;;;4816219;29;20194;-84
2023/08/22 07:34:48;;;;;;;18.63;16.97;;;29.10;99.90;;;;;;4814763;29;20417;-85
2023/08/22 07:37:14;;;;;;;16.97;15.37;;;29.20;99.90;;;;;;4830555;29;20240;-80
2023/08/22 07:39:41;;;;;;;17.57;15.57;;;29.20;99.90;;;;;;4827170;29;20538;-79
2023/08/22 07:42:07;;;;;;;18.07;16.47;;;29.20;99.90;;;;;;4813141;29;20834;-85
2023/08/22 07:44:34;;;;;;;18.13;16.23;;;29.30;99.90;;;;;;4813689;29;20446;-80
2023/08/22 07:46:59;;;;;;;16.23;14.93;;;29.40;99.90;;;;;;4811481;29;20603;-84
2023/08/22 07:49:26;;;;;;;16.93;15.33;;;29.50;99.90;;;;;;4823184;29;20525;-80
2023/08/22 07:51:52;;;;;;;18.33;16.67;;;29.60;99.90;;;;;;4814121;29;20199;-80
2023/08/22 07:54:18;;;;;;;18.00;16.20;;;29.50;99.90;;;;;;4815807;29;20916;-85
2023/08/22 07:56:46;;;;;;;16.97;15.23;;;29.50;99.90;;;;;;4829413;29;20477;-79
2023/08/22 07:59:13;;;;;;;17.17;15.37;;;29.50;99.90;;;;;;4814193;29;20784;-80
2023/08/22 08:01:38;;;;;;;20.57;18.67;;;29.60;99.90;;;;;;4812892;29;20452;-83
2023/08/22 08:04:04;;;;;;;18.63;16.57;;;29.80;99.90;;;;;;4816523;29;21426;-85
2023/08/22 08:06:33;;;;;;;16.53;15.00;;;29.80;99.90;;;;;;4815654;29;20235;-85
2023/08/22 08:09:00;;;;;;;16.90;15.20;;;29.90;99.90;;;;;;4817957;29;20185;-85
2023/08/22 08:11:29;;;;;;;17.93;16.43;;;30.10;99.90;;;;;;4818594;29;20472;-85
2023/08/22 08:13:55;;;;;;;17.10;15.40;;;30.10;99.90;;;;;;4818051;29;20973;-80
2023/08/22 08:16:21;;;;;;;16.40;15.00;;;30.20;99.90;;;;;;4817523;29;20426;-84
2023/08/22 08:18:48;;;;;;;15.73;14.33;;;30.20;99.90;;;;;;4814966;29;20766;-85
2023/08/22 08:21:14;;;;;;;15.97;14.47;;;30.10;99.90;;;;;;4818849;29;20202;-85
2023/08/22 08:23:40;;;;;;;17.40;15.60;;;30.20;99.90;;;;;;4818006;29;20971;-80
2023/08/22 08:26:07;;;;;;;16.20;14.70;;;30.50;99.90;;;;;;4833010;29;20257;-80
2023/08/22 08:28:36;;;;;;;16.37;14.77;;;30.60;99.90;;;;;;4819255;29;20647;-80
2023/08/22 08:31:02;;;;;;;15.47;14.07;;;30.70;99.90;;;;;;4833119;29;20849;-84
2023/08/22 08:33:28;;;;;;;15.00;13.80;;;30.40;99.90;;;;;;4833967;29;20429;-85
2023/08/22 08:35:53;;;;;;;16.50;14.87;;;30.60;99.90;;;;;;4820812;29;20220;-85
2023/08/22 08:38:19;;;;;;;16.90;14.80;;;30.60;99.90;;;;;;4818748;29;20217;-85
2023/08/22 08:40:46;;;;;;;15.53;13.90;;;30.70;99.90;;;;;;4819303;29;20248;-80
2023/08/22 08:43:12;;;;;;;17.00;14.67;;;30.90;99.90;;;;;;4819168;29;20417;-80
2023/08/22 08:45:39;;;;;;;19.03;15.03;;;31.00;99.90;;;;;;4818173;29;20464;-85
2023/08/22 08:48:06;;;;;;;16.20;14.80;;;30.90;99.90;;;;;;4832807;29;20414;-80
2023/08/22 08:50:32;;;;;;;16.17;13.70;;;30.80;99.90;;;;;;4818983;29;20619;-84
2023/08/22 08:52:58;;;;;;;16.57;15.17;;;30.50;99.90;;;;;;4818441;29;20516;-80
2023/08/22 08:55:24;;;;;;;14.47;13.17;;;30.60;99.90;;;;;;4818887;29;20590;-80
2023/08/22 08:57:52;;;;;;;15.00;13.57;;;30.50;99.90;;;;;;4816867;29;20462;-84
2023/08/22 09:00:18;;;;;;;14.50;13.00;;;30.70;99.90;;;;;;4823479;29;20555;-85
2023/08/22 09:02:44;;;;;;;14.10;12.80;;;30.90;99.90;;;;;;4838608;29;20485;-84
2023/08/22 09:05:11;;;;;;;14.10;12.93;;;31.40;99.90;;;;;;4838851;29;20484;-80
2023/08/22 09:07:38;;;;;;;14.00;12.80;;;31.80;99.90;;;;;;4852203;29;20413;-79
2023/08/22 09:10:05;;;;;;;13.17;12.00;;;31.70;99.90;;;;;;4852244;29;20472;-84
2023/08/22 09:12:33;;;;;;;14.60;13.30;;;31.90;99.90;;;;;;4824320;29;20440;-81
2023/08/22 09:14:58;;;;;;;13.83;12.60;;;32.00;99.90;;;;;;4819004;29;20560;-84
2023/08/22 09:17:30;;;;;;;15.30;14.00;;;31.90;99.90;;;;;;4819597;29;20512;-84
2023/08/22 09:19:56;;;;;;;14.00;12.70;;;31.70;99.90;;;;;;4833335;29;20324;-80
2023/08/22 09:22:31;;;;;;;14.83;13.60;;;31.90;99.90;;;;;;4833376;29;20521;-80
2023/08/22 09:24:57;;;;;;;15.97;14.30;;;32.10;99.90;;;;;;4818992;29;20452;-85
2023/08/22 09:27:26;;;;;;;13.67;12.57;;;32.20;99.90;;;;;;4816988;29;20960;-85
2023/08/22 09:29:53;;;;;;;14.10;12.93;;;32.30;99.90;;;;;;4833625;29;20209;-85
2023/08/22 09:32:21;;;;;;;13.17;11.97;;;32.40;99.90;;;;;;4819710;29;20413;-79
2023/08/22 09:34:55;;;;;;;14.00;12.53;;;32.50;99.90;;;;;;4818186;29;20877;-80
2023/08/22 09:37:38;;;;;;;13.70;12.60;;;32.60;99.90;;;;;;4818124;29;20448;-79
2023/08/22 09:40:16;;;;;;;14.00;12.90;;;32.70;99.90;;;;;;4815517;29;20494;-85
2023/08/22 09:42:42;;;;;;;15.40;14.10;;;32.70;99.90;;;;;;4808671;29;20441;-80
2023/08/22 09:45:09;;;;;;;13.90;12.70;;;32.70;99.90;;;;;;4809801;29;20955;-85
2023/08/22 09:47:42;;;;;;;13.63;12.43;;;32.90;99.90;;;;;;4800960;29;20714;-80
2023/08/22 09:50:10;;;;;;;13.37;12.17;;;32.80;99.90;;;;;;4803039;29;20487;-80
2023/08/22 09:52:37;;;;;;;14.27;13.00;;;32.90;99.90;;;;;;4819361;29;20457;-80
2023/08/22 09:55:03;;;;;;;13.03;12.07;;;33.00;99.90;;;;;;4819321;29;20492;-80
2023/08/22 09:57:30;;;;;;;13.33;12.23;;;33.00;99.90;;;;;;4816137;29;20441;-80
2023/08/22 09:59:59;;;;;;;13.63;12.53;;;33.00;99.90;;;;;;4818085;29;20497;-80
2023/08/22 10:02:26;;;;;;;13.33;12.23;;;33.00;99.90;;;;;;4816211;29;20445;-86
2023/08/22 10:04:53;;;;;;;13.20;12.20;;;33.00;99.90;;;;;;4831634;29;20457;-81
2023/08/22 10:07:18;;;;;;;15.27;13.97;;;33.00;99.90;;;;;;4831177;29;20425;-80
2023/08/22 10:09:44;;;;;;;17.63;15.60;;;33.10;99.90;;;;;;4815372;29;20877;-86
2023/08/22 10:12:14;;;;;;;14.80;13.40;;;33.10;99.90;;;;;;4828959;29;20194;-84
2023/08/22 10:14:44;;;;;;;13.80;12.60;;;33.10;99.90;;;;;;4816391;29;20361;-85
2023/08/22 10:17:13;;;;;;;15.60;13.43;;;33.00;99.90;;;;;;4815277;29;20952;-80
2023/08/22 10:19:41;;;;;;;14.60;13.40;;;33.10;99.90;;;;;;4828404;29;20500;-85
2023/08/22 10:22:11;;;;;;;12.77;11.77;;;33.10;99.90;;;;;;4813623;29;20811;-79
2023/08/22 10:24:37;;;;;;;13.27;11.97;;;33.20;99.90;;;;;;4816038;29;20449;-84
2023/08/22 10:27:04;;;;;;;13.30;12.20;;;33.10;99.90;;;;;;4815548;29;20478;-80
2023/08/22 10:29:37;;;;;;;14.00;12.60;;;33.10;99.90;;;;;;4807597;29;20429;-80
2023/08/22 10:32:03;;;;;;;13.33;12.23;;;33.20;99.90;;;;;;4807642;29;20454;-81
2023/08/22 10:34:38;;;;;;;13.10;11.80;;;33.20;99.90;;;;;;4809377;29;20429;-80
2023/08/22 10:37:14;;;;;;;13.60;12.20;;;33.20;99.90;;;;;;4808469;29;20734;-81
2023/08/22 10:39:41;;;;;;;13.43;12.17;;;33.20;99.90;;;;;;4817697;29;20840;-85
2023/08/22 10:42:15;;;;;;;12.03;10.80;;;33.30;99.90;;;;;;4816846;29;20998;-85
2023/08/22 10:44:41;;;;;;;13.97;12.80;;;33.30;99.90;;;;;;4819391;29;20442;-85
2023/08/22 10:47:14;;;;;;;11.93;11.03;;;33.50;99.90;;;;;;4818443;29;20832;-85
2023/08/22 10:49:40;;;;;;;13.00;12.00;;;33.50;99.90;;;;;;4814814;29;20510;-85
2023/08/22 10:52:07;;;;;;;14.33;12.83;;;33.50;99.90;;;;;;4809373;29;20425;-80
2023/08/22 10:55:10;;;;;;;11.70;10.70;;;33.40;99.90;;;;;;4818920;29;20425;-85
2023/08/22 10:57:37;;;;;;;11.60;10.60;;;33.60;99.90;;;;;;4818496;29;20410;-80
2023/08/22 11:00:22;;;;;;;10.90;9.90;;;33.60;99.90;;;;;;4818597;29;20489;-85
2023/08/22 11:02:50;;;;;;;11.80;10.60;;;33.80;99.80;;;;;;4817745;29;20504;-81
2023/08/22 11:05:16;;;;;;;12.13;11.03;;;33.90;99.70;;;;;;4831855;29;20461;-85
2023/08/22 11:07:51;;;;;;;12.10;10.90;;;34.00;99.80;;;;;;4818600;29;20426;-80
2023/08/22 11:10:25;;;;;;;13.00;10.63;;;34.00;99.50;;;;;;4819082;29;20453;-80
2023/08/22 11:12:54;;;;;;;11.50;10.50;;;34.10;99.50;;;;;;4818631;29;20410;-80
2023/08/22 11:15:20;;;;;;;13.00;12.00;;;34.20;99.00;;;;;;4816498;29;21049;-80
2023/08/22 11:17:48;;;;;;;12.63;11.50;;;34.30;98.10;;;;;;4817492;29;20414;-84
2023/08/22 11:20:16;;;;;;;11.20;10.20;;;34.50;96.60;;;;;;4814322;29;20771;-80
2023/08/22 11:22:45;;;;;;;14.53;10.60;;;34.50;96.70;;;;;;4816810;29;20475;-81
2023/08/22 11:25:22;;;;;;;11.33;10.30;;;34.60;97.30;;;;;;4816169;29;20457;-82
2023/08/22 11:27:48;;;;;;;12.03;11.03;;;34.60;97.20;;;;;;4829424;29;20931;-81
2023/08/22 11:30:16;;;;;;;11.80;10.77;;;34.70;97.00;;;;;;4816735;29;20528;-81
2023/08/22 11:32:42;;;;;;;12.20;11.20;;;34.70;96.90;;;;;;4816524;29;20281;-81
2023/08/22 11:35:10;;;;;;;12.23;11.27;;;34.70;97.50;;;;;;4814138;29;20564;-86
2023/08/22 11:37:38;;;;;;;13.03;11.90;;;34.80;97.70;;;;;;4816089;29;20201;-86
2023/08/22 11:40:05;;;;;;;10.80;9.90;;;34.80;96.80;;;;;;4817051;29;20603;-86
2023/08/22 11:42:33;;;;;;;12.43;11.33;;;34.80;97.40;;;;;;4832539;29;20782;-82
2023/08/22 11:45:04;;;;;;;11.87;10.60;;;34.80;97.00;;;;;;4832523;29;20453;-86
2023/08/22 11:47:51;;;;;;;12.37;11.27;;;34.70;97.40;;;;;;4817997;29;20418;-86
2023/08/22 11:50:24;;;;;;;12.40;10.50;;;34.70;97.50;;;;;;4831665;29;21061;-86
2023/08/22 11:52:53;;;;;;;11.70;9.77;;;34.60;97.60;;;;;;4814941;29;20441;-81
2023/08/22 11:55:26;;;;;;;10.97;9.80;;;34.60;97.50;;;;;;4819771;29;20495;-86
2023/08/22 11:58:05;;;;;;;10.33;9.40;;;34.50;97.20;;;;;;4812666;29;20537;-81
2023/08/22 12:00:34;;;;;;;10.53;9.63;;;34.60;95.90;;;;;;4820394;29;20475;-81
2023/08/22 12:03:01;;;;;;;10.63;9.70;;;34.70;95.30;;;;;;4808230;29;20627;-81
2023/08/22 12:05:34;;;;;;;11.23;10.10;;;34.80;94.50;;;;;;4814382;29;20506;-81
2023/08/22 12:08:20;;;;;;;10.00;9.10;;;34.90;95.10;;;;;;4820571;29;20505;-81
2023/08/22 12:10:53;;;;;;;11.40;10.30;;;34.90;94.90;;;;;;4819536;29;20445;-85
2023/08/22 12:13:23;;;;;;;9.97;9.00;;;34.90;95.20;;;;;;4819540;29;20449;-80
2023/08/22 12:15:50;;;;;;;10.43;9.47;;;34.90;95.40;;;;;;4821567;29;20437;-81
2023/08/22 12:18:17;;;;;;;11.87;10.50;;;34.80;95.90;;;;;;4820663;29;20969;-86
2023/08/22 12:20:44;;;;;;;11.93;10.93;;;34.70;96.10;;;;;;4820622;29;20437;-86
2023/08/22 12:23:11;;;;;;;13.40;11.87;;;34.70;96.40;;;;;;4819008;29;20967;-82
2023/08/22 12:25:40;;;;;;;11.87;10.87;;;34.60;96.60;;;;;;4820425;29;20465;-80
2023/08/22 12:28:06;;;;;;;11.93;10.73;;;34.60;96.70;;;;;;4837587;29;20479;-81